sensor_id;sensor_type;location;lat;lon;timestamp;temperature;humidity
17845;DHT22;9047;53.486;10.218;2023-05-07T00:00:26;9.30;99.90
17845;DHT22;9047;53.486;10.218;2023-05-07T00:02:55;9.30;99.90
17845;DHT22;9047;53.486;10.218;2023-05-07T00:05:22;9.30;99.90
17845;DHT22;9047;53.486;10.218;2023-05-07T00:07:49;9.30;99.90
17845;DHT22;9047;53.486;10.218;2023-05-07T00:10:18;9.30;99.90
17845;DHT22;9047;53.486;10.218;2023-05-07T00:12:45;9.30;99.90
17845;DHT22;9047;53.486;10.218;2023-05-07T00:15:14;9.30;99.90
17845;DHT22;9047;53.486;10.218;2023-05-07T00:17:42;9.30;99.90
17845;DHT22;9047;53.486;10.218;2023-05-07T00:20:10;9.30;99.90
17845;DHT22;9047;53.486;10.218;2023-05-07T00:22:37;9.30;99.90
17845;DHT22;9047;53.486;10.218;2023-05-07T00:25:05;9.30;99.90
17845;DHT22;9047;53.486;10.218;2023-05-07T00:27:32;9.30;99.90
17845;DHT22;9047;53.486;10.218;2023-05-07T00:30:00;9.30;99.90
17845;DHT22;9047;53.486;10.218;2023-05-07T00:32:29;9.30;99.90
17845;DHT22;9047;53.486;10.218;2023-05-07T00:34:56;9.40;99.90
17845;DHT22;9047;53.486;10.218;2023-05-07T00:37:25;9.40;99.90
17845;DHT22;9047;53.486;10.218;2023-05-07T00:40:07;9.40;99.90
17845;DHT22;9047;53.486;10.218;2023-05-07T00:42:34;9.40;99.90
17845;DHT22;9047;53.486;10.218;2023-05-07T00:45:06;9.40;99.90
17845;DHT22;9047;53.486;10.218;2023-05-07T00:47:39;9.40;99.90
17845;DHT22;9047;53.486;10.218;2023-05-07T00:50:07;9.40;99.90
17845;DHT22;9047;53.486;10.218;2023-05-07T00:52:35;9.40;99.90
17845;DHT22;9047;53.486;10.218;2023-05-07T00:55:07;9.40;99.90
17845;DHT22;9047;53.486;10.218;2023-05-07T00:57:40;9.40;99.90
17845;DHT22;9047;53.486;10.218;2023-05-07T01:00:15;9.40;99.90
17845;DHT22;9047;53.486;10.218;2023-05-07T01:02:48;9.40;99.90
17845;DHT22;9047;53.486;10.218;2023-05-07T01:05:17;9.40;99.90
17845;DHT22;9047;53.486;10.218;2023-05-07T01:07:46;9.40;99.90
17845;DHT22;9047;53.486;10.218;2023-05-07T01:10:14;9.40;99.90
17845;DHT22;9047;53.486;10.218;2023-05-07T01:12:42;9.50;99.90
17845;DHT22;9047;53.486;10.218;2023-05-07T01:15:10;9.40;99.90
17845;DHT22;9047;53.486;10.218;2023-05-07T01:17:40;9.50;99.90
17845;DHT22;9047;53.486;10.218;2023-05-07T01:20:10;9.50;99.90
17845;DHT22;9047;53.486;10.218;2023-05-07T01:22:40;9.40;99.90
17845;DHT22;9047;53.486;10.218;2023-05-07T01:25:07;9.40;99.90
17845;DHT22;9047;53.486;10.218;2023-05-07T01:27:35;9.40;99.90
17845;DHT22;9047;53.486;10.218;2023-05-07T01:30:05;9.40;99.90
17845;DHT22;9047;53.486;10.218;2023-05-07T01:32:35;9.40;99.90
17845;DHT22;9047;53.486;10.218;2023-05-07T01:35:07;9.40;99.90
17845;DHT22;9047;53.486;10.218;2023-05-07T01:37:36;9.40;99.90
17845;DHT22;9047;53.486;10.218;2023-05-07T01:40:07;9.40;99.90
17845;DHT22;9047;53.486;10.218;2023-05-07T01:42:35;9.50;99.90
17845;DHT22;9047;53.486;10.218;2023-05-07T01:45:02;9.50;99.90
17845;DHT22;9047;53.486;10.218;2023-05-07T01:47:30;9.50;99.90
17845;DHT22;9047;53.486;10.218;2023-05-07T01:49:58;9.40;99.90
17845;DHT22;9047;53.486;10.218;2023-05-07T01:52:27;9.40;99.90
17845;DHT22;9047;53.486;10.218;2023-05-07T01:54:54;9.40;99.90
17845;DHT22;9047;53.486;10.218;2023-05-07T01:57:23;9.50;99.90
17845;DHT22;9047;53.486;10.218;2023-05-07T01:59:52;9.40;99.90
17845;DHT22;9047;53.486;10.218;2023-05-07T02:02:19;9.40;99.90
17845;DHT22;9047;53.486;10.218;2023-05-07T02:04:47;9.40;99.90
17845;DHT22;9047;53.486;10.218;2023-05-07T02:07:15;9.40;99.90
17845;DHT22;9047;53.486;10.218;2023-05-07T02:09:43;9.40;99.90
17845;DHT22;9047;53.486;10.218;2023-05-07T02:12:10;9.40;99.90
17845;DHT22;9047;53.486;10.218;2023-05-07T02:14:39;9.40;99.90
17845;DHT22;9047;53.486;10.218;2023-05-07T02:17:07;9.40;99.90
17845;DHT22;9047;53.486;10.218;2023-05-07T02:19:47;9.40;99.90
17845;DHT22;9047;53.486;10.218;2023-05-07T02:22:14;9.40;99.90
17845;DHT22;9047;53.486;10.218;2023-05-07T02:24:41;9.30;99.90
17845;DHT22;9047;53.486;10.218;2023-05-07T02:27:10;9.30;99.90
17845;DHT22;9047;53.486;10.218;2023-05-07T02:29:42;9.30;99.90
17845;DHT22;9047;53.486;10.218;2023-05-07T02:32:09;9.30;99.90
17845;DHT22;9047;53.486;10.218;2023-05-07T02:34:37;9.30;99.90
17845;DHT22;9047;53.486;10.218;2023-05-07T02:37:06;9.30;99.90
17845;DHT22;9047;53.486;10.218;2023-05-07T02:39:33;9.30;99.90
17845;DHT22;9047;53.486;10.218;2023-05-07T02:42:01;9.30;99.90
17845;DHT22;9047;53.486;10.218;2023-05-07T02:44:30;9.30;99.90
17845;DHT22;9047;53.486;10.218;2023-05-07T02:46:59;9.30;99.90
17845;DHT22;9047;53.486;10.218;2023-05-07T02:49:26;9.30;99.90
17845;DHT22;9047;53.486;10.218;2023-05-07T02:51:53;9.30;99.90
17845;DHT22;9047;53.486;10.218;2023-05-07T02:54:20;9.30;99.90
17845;DHT22;9047;53.486;10.218;2023-05-07T02:56:52;9.30;99.90
17845;DHT22;9047;53.486;10.218;2023-05-07T02:59:19;9.20;99.90
17845;DHT22;9047;53.486;10.218;2023-05-07T03:01:46;9.20;99.90
17845;DHT22;9047;53.486;10.218;2023-05-07T03:04:15;9.30;99.90
17845;DHT22;9047;53.486;10.218;2023-05-07T03:06:42;9.20;99.90
17845;DHT22;9047;53.486;10.218;2023-05-07T03:09:09;9.20;99.90
17845;DHT22;9047;53.486;10.218;2023-05-07T03:11:37;9.30;99.90
17845;DHT22;9047;53.486;10.218;2023-05-07T03:14:04;9.20;99.90
17845;DHT22;9047;53.486;10.218;2023-05-07T03:16:32;9.30;99.90
17845;DHT22;9047;53.486;10.218;2023-05-07T03:19:03;9.30;99.90
17845;DHT22;9047;53.486;10.218;2023-05-07T03:21:32;9.30;99.90
17845;DHT22;9047;53.486;10.218;2023-05-07T03:24:00;9.30;99.90
17845;DHT22;9047;53.486;10.218;2023-05-07T03:26:26;9.30;99.90
17845;DHT22;9047;53.486;10.218;2023-05-07T03:28:54;9.30;99.90
17845;DHT22;9047;53.486;10.218;2023-05-07T03:31:22;9.30;99.90
17845;DHT22;9047;53.486;10.218;2023-05-07T03:33:52;9.30;99.90
17845;DHT22;9047;53.486;10.218;2023-05-07T03:36:20;9.30;99.90
17845;DHT22;9047;53.486;10.218;2023-05-07T03:38:49;9.30;99.90
17845;DHT22;9047;53.486;10.218;2023-05-07T03:41:16;9.30;99.90
17845;DHT22;9047;53.486;10.218;2023-05-07T03:43:43;9.30;99.90
17845;DHT22;9047;53.486;10.218;2023-05-07T03:46:10;9.40;99.90
17845;DHT22;9047;53.486;10.218;2023-05-07T03:48:37;9.30;99.90
17845;DHT22;9047;53.486;10.218;2023-05-07T03:51:04;9.30;99.90
17845;DHT22;9047;53.486;10.218;2023-05-07T03:53:31;9.30;99.90
17845;DHT22;9047;53.486;10.218;2023-05-07T03:56:00;9.20;99.90
17845;DHT22;9047;53.486;10.218;2023-05-07T03:58:27;9.30;99.90
17845;DHT22;9047;53.486;10.218;2023-05-07T04:00:53;9.40;99.90
17845;DHT22;9047;53.486;10.218;2023-05-07T04:03:21;9.40;99.90
17845;DHT22;9047;53.486;10.218;2023-05-07T04:05:48;9.40;99.90
17845;DHT22;9047;53.486;10.218;2023-05-07T04:08:15;9.40;99.90
17845;DHT22;9047;53.486;10.218;2023-05-07T04:10:42;9.40;99.90
17845;DHT22;9047;53.486;10.218;2023-05-07T04:13:13;9.40;99.90
17845;DHT22;9047;53.486;10.218;2023-05-07T04:15:40;9.40;99.90
17845;DHT22;9047;53.486;10.218;2023-05-07T04:18:10;9.40;99.90
17845;DHT22;9047;53.486;10.218;2023-05-07T04:20:38;9.40;99.90
17845;DHT22;9047;53.486;10.218;2023-05-07T04:23:05;9.50;99.90
17845;DHT22;9047;53.486;10.218;2023-05-07T04:25:35;9.50;99.90
17845;DHT22;9047;53.486;10.218;2023-05-07T04:28:03;9.50;99.90
17845;DHT22;9047;53.486;10.218;2023-05-07T04:30:31;9.50;99.90
17845;DHT22;9047;53.486;10.218;2023-05-07T04:32:58;9.50;99.90
17845;DHT22;9047;53.486;10.218;2023-05-07T04:35:26;9.50;99.90
17845;DHT22;9047;53.486;10.218;2023-05-07T04:37:53;9.50;99.90
17845;DHT22;9047;53.486;10.218;2023-05-07T04:40:20;9.50;99.90
17845;DHT22;9047;53.486;10.218;2023-05-07T04:42:47;9.50;99.90
17845;DHT22;9047;53.486;10.218;2023-05-07T04:45:18;9.50;99.90
17845;DHT22;9047;53.486;10.218;2023-05-07T04:47:48;9.50;99.90
17845;DHT22;9047;53.486;10.218;2023-05-07T04:50:16;9.60;99.90
17845;DHT22;9047;53.486;10.218;2023-05-07T04:52:45;9.60;99.90
17845;DHT22;9047;53.486;10.218;2023-05-07T04:55:12;9.60;99.90
17845;DHT22;9047;53.486;10.218;2023-05-07T04:57:40;9.60;99.90
17845;DHT22;9047;53.486;10.218;2023-05-07T05:00:09;9.80;99.90
17845;DHT22;9047;53.486;10.218;2023-05-07T05:02:39;9.70;99.90
17845;DHT22;9047;53.486;10.218;2023-05-07T05:05:09;9.70;99.90
17845;DHT22;9047;53.486;10.218;2023-05-07T05:07:36;9.70;99.90
17845;DHT22;9047;53.486;10.218;2023-05-07T05:10:05;9.80;99.90
17845;DHT22;9047;53.486;10.218;2023-05-07T05:12:34;9.80;99.90
17845;DHT22;9047;53.486;10.218;2023-05-07T05:15:02;9.80;99.90
17845;DHT22;9047;53.486;10.218;2023-05-07T05:17:31;9.80;99.90
17845;DHT22;9047;53.486;10.218;2023-05-07T05:19:59;9.80;99.90
17845;DHT22;9047;53.486;10.218;2023-05-07T05:22:31;9.90;99.90
17845;DHT22;9047;53.486;10.218;2023-05-07T05:24:58;10.00;99.90
17845;DHT22;9047;53.486;10.218;2023-05-07T05:27:25;10.00;99.90
17845;DHT22;9047;53.486;10.218;2023-05-07T05:29:53;9.90;99.90
17845;DHT22;9047;53.486;10.218;2023-05-07T05:32:21;9.90;99.90
17845;DHT22;9047;53.486;10.218;2023-05-07T05:34:50;10.00;99.90
17845;DHT22;9047;53.486;10.218;2023-05-07T05:37:18;10.00;99.90
17845;DHT22;9047;53.486;10.218;2023-05-07T05:39:47;10.00;99.90
17845;DHT22;9047;53.486;10.218;2023-05-07T05:42:14;10.00;99.90
17845;DHT22;9047;53.486;10.218;2023-05-07T05:44:42;10.00;99.90
17845;DHT22;9047;53.486;10.218;2023-05-07T05:47:11;10.00;99.90
17845;DHT22;9047;53.486;10.218;2023-05-07T05:49:41;10.10;99.90
17845;DHT22;9047;53.486;10.218;2023-05-07T05:52:09;10.10;99.90
17845;DHT22;9047;53.486;10.218;2023-05-07T05:54:39;10.10;99.90
17845;DHT22;9047;53.486;10.218;2023-05-07T05:57:13;10.10;99.90
17845;DHT22;9047;53.486;10.218;2023-05-07T05:59:40;10.10;99.90
17845;DHT22;9047;53.486;10.218;2023-05-07T06:02:08;10.10;99.90
17845;DHT22;9047;53.486;10.218;2023-05-07T06:04:35;10.20;99.90
17845;DHT22;9047;53.486;10.218;2023-05-07T06:07:04;10.20;99.90
17845;DHT22;9047;53.486;10.218;2023-05-07T06:09:31;10.20;99.90
17845;DHT22;9047;53.486;10.218;2023-05-07T06:12:01;10.20;99.90
17845;DHT22;9047;53.486;10.218;2023-05-07T06:14:31;10.20;99.90
17845;DHT22;9047;53.486;10.218;2023-05-07T06:16:58;10.20;99.90
17845;DHT22;9047;53.486;10.218;2023-05-07T06:19:28;10.20;99.90
17845;DHT22;9047;53.486;10.218;2023-05-07T06:21:55;10.30;99.90
17845;DHT22;9047;53.486;10.218;2023-05-07T06:24:25;10.40;99.90
17845;DHT22;9047;53.486;10.218;2023-05-07T06:26:56;10.30;99.90
17845;DHT22;9047;53.486;10.218;2023-05-07T06:29:27;10.30;99.90
17845;DHT22;9047;53.486;10.218;2023-05-07T06:32:07;10.30;99.90
17845;DHT22;9047;53.486;10.218;2023-05-07T06:34:36;10.40;99.90
17845;DHT22;9047;53.486;10.218;2023-05-07T06:37:03;10.40;99.90
17845;DHT22;9047;53.486;10.218;2023-05-07T06:39:30;10.50;99.90
17845;DHT22;9047;53.486;10.218;2023-05-07T06:42:00;10.50;99.90
17845;DHT22;9047;53.486;10.218;2023-05-07T06:44:30;10.60;99.90
17845;DHT22;9047;53.486;10.218;2023-05-07T06:46:58;10.60;99.90
17845;DHT22;9047;53.486;10.218;2023-05-07T06:49:26;10.60;99.90
17845;DHT22;9047;53.486;10.218;2023-05-07T06:51:53;10.60;99.90
17845;DHT22;9047;53.486;10.218;2023-05-07T06:54:23;10.60;99.90
17845;DHT22;9047;53.486;10.218;2023-05-07T06:56:51;10.70;99.90
17845;DHT22;9047;53.486;10.218;2023-05-07T06:59:19;10.70;99.90
17845;DHT22;9047;53.486;10.218;2023-05-07T07:01:49;10.80;99.90
17845;DHT22;9047;53.486;10.218;2023-05-07T07:04:19;10.80;99.90
17845;DHT22;9047;53.486;10.218;2023-05-07T07:06:49;10.90;99.90
17845;DHT22;9047;53.486;10.218;2023-05-07T07:09:16;10.90;99.90
17845;DHT22;9047;53.486;10.218;2023-05-07T07:11:44;10.90;99.90
17845;DHT22;9047;53.486;10.218;2023-05-07T07:14:11;10.90;99.90
17845;DHT22;9047;53.486;10.218;2023-05-07T07:16:38;10.90;99.90
17845;DHT22;9047;53.486;10.218;2023-05-07T07:19:08;10.90;99.90
17845;DHT22;9047;53.486;10.218;2023-05-07T07:21:35;10.90;99.90
17845;DHT22;9047;53.486;10.218;2023-05-07T07:24:05;11.00;99.90
17845;DHT22;9047;53.486;10.218;2023-05-07T07:26:32;11.00;99.90
17845;DHT22;9047;53.486;10.218;2023-05-07T07:29:01;11.10;99.90
17845;DHT22;9047;53.486;10.218;2023-05-07T07:31:28;11.10;99.90
17845;DHT22;9047;53.486;10.218;2023-05-07T07:34:00;11.20;99.90
17845;DHT22;9047;53.486;10.218;2023-05-07T07:36:27;11.20;99.90
17845;DHT22;9047;53.486;10.218;2023-05-07T07:38:57;11.20;99.90
17845;DHT22;9047;53.486;10.218;2023-05-07T07:41:26;11.30;99.90
17845;DHT22;9047;53.486;10.218;2023-05-07T07:43:53;11.40;99.90
17845;DHT22;9047;53.486;10.218;2023-05-07T07:46:24;11.50;99.90
17845;DHT22;9047;53.486;10.218;2023-05-07T07:48:54;11.50;99.90
17845;DHT22;9047;53.486;10.218;2023-05-07T07:51:30;11.60;99.90
17845;DHT22;9047;53.486;10.218;2023-05-07T07:53:58;11.80;99.90
17845;DHT22;9047;53.486;10.218;2023-05-07T07:56:29;11.90;99.90
17845;DHT22;9047;53.486;10.218;2023-05-07T07:59:00;11.80;99.90
17845;DHT22;9047;53.486;10.218;2023-05-07T08:01:31;11.80;99.90
17845;DHT22;9047;53.486;10.218;2023-05-07T08:04:00;11.80;99.90
17845;DHT22;9047;53.486;10.218;2023-05-07T08:06:31;11.80;99.90
17845;DHT22;9047;53.486;10.218;2023-05-07T08:08:58;11.90;99.90
17845;DHT22;9047;53.486;10.218;2023-05-07T08:11:30;11.80;99.90
17845;DHT22;9047;53.486;10.218;2023-05-07T08:13:57;11.90;99.90
17845;DHT22;9047;53.486;10.218;2023-05-07T08:16:24;11.90;99.90
17845;DHT22;9047;53.486;10.218;2023-05-07T08:18:51;11.90;99.90
17845;DHT22;9047;53.486;10.218;2023-05-07T08:21:27;12.00;99.90
17845;DHT22;9047;53.486;10.218;2023-05-07T08:23:54;12.00;99.90
17845;DHT22;9047;53.486;10.218;2023-05-07T08:26:21;12.00;99.90
17845;DHT22;9047;53.486;10.218;2023-05-07T08:28:51;12.00;99.90
17845;DHT22;9047;53.486;10.218;2023-05-07T08:31:21;12.00;99.90
17845;DHT22;9047;53.486;10.218;2023-05-07T08:33:49;12.00;99.90
17845;DHT22;9047;53.486;10.218;2023-05-07T08:36:16;12.30;99.90
17845;DHT22;9047;53.486;10.218;2023-05-07T08:38:44;12.20;99.90
17845;DHT22;9047;53.486;10.218;2023-05-07T08:41:11;12.40;99.90
17845;DHT22;9047;53.486;10.218;2023-05-07T08:43:41;12.50;99.90
17845;DHT22;9047;53.486;10.218;2023-05-07T08:46:09;12.60;99.90
17845;DHT22;9047;53.486;10.218;2023-05-07T08:48:37;12.60;99.90
17845;DHT22;9047;53.486;10.218;2023-05-07T08:51:04;12.70;99.90
17845;DHT22;9047;53.486;10.218;2023-05-07T08:53:31;12.70;99.90
17845;DHT22;9047;53.486;10.218;2023-05-07T08:55:59;12.70;99.90
17845;DHT22;9047;53.486;10.218;2023-05-07T08:58:27;12.70;99.90
17845;DHT22;9047;53.486;10.218;2023-05-07T09:01:05;12.60;99.90
17845;DHT22;9047;53.486;10.218;2023-05-07T09:03:46;12.60;99.90
17845;DHT22;9047;53.486;10.218;2023-05-07T09:06:28;12.50;99.90
17845;DHT22;9047;53.486;10.218;2023-05-07T09:08:55;12.60;99.90
17845;DHT22;9047;53.486;10.218;2023-05-07T09:11:24;12.60;99.90
17845;DHT22;9047;53.486;10.218;2023-05-07T09:13:53;12.70;99.90
17845;DHT22;9047;53.486;10.218;2023-05-07T09:16:21;12.70;99.90
17845;DHT22;9047;53.486;10.218;2023-05-07T09:18:52;12.70;99.90
17845;DHT22;9047;53.486;10.218;2023-05-07T09:21:22;12.70;99.90
17845;DHT22;9047;53.486;10.218;2023-05-07T09:23:51;12.70;99.90
17845;DHT22;9047;53.486;10.218;2023-05-07T09:26:21;12.80;99.90
17845;DHT22;9047;53.486;10.218;2023-05-07T09:28:48;12.80;99.90
17845;DHT22;9047;53.486;10.218;2023-05-07T09:31:15;12.90;99.90
17845;DHT22;9047;53.486;10.218;2023-05-07T09:33:42;12.90;99.90
17845;DHT22;9047;53.486;10.218;2023-05-07T09:36:11;12.90;99.90
17845;DHT22;9047;53.486;10.218;2023-05-07T09:38:38;12.90;99.90
17845;DHT22;9047;53.486;10.218;2023-05-07T09:41:07;12.90;99.90
17845;DHT22;9047;53.486;10.218;2023-05-07T09:43:35;12.90;99.90
17845;DHT22;9047;53.486;10.218;2023-05-07T09:46:11;12.90;99.90
17845;DHT22;9047;53.486;10.218;2023-05-07T09:48:42;12.90;99.90
17845;DHT22;9047;53.486;10.218;2023-05-07T09:51:22;12.90;99.90
17845;DHT22;9047;53.486;10.218;2023-05-07T09:53:55;13.10;99.90
17845;DHT22;9047;53.486;10.218;2023-05-07T09:56:23;13.10;99.90
17845;DHT22;9047;53.486;10.218;2023-05-07T09:58:52;13.20;99.90
17845;DHT22;9047;53.486;10.218;2023-05-07T10:01:21;13.40;99.90
17845;DHT22;9047;53.486;10.218;2023-05-07T10:03:50;13.50;99.90
17845;DHT22;9047;53.486;10.218;2023-05-07T10:06:20;13.70;99.90
17845;DHT22;9047;53.486;10.218;2023-05-07T10:08:48;13.80;99.90
17845;DHT22;9047;53.486;10.218;2023-05-07T10:11:18;14.00;99.90
17845;DHT22;9047;53.486;10.218;2023-05-07T10:13:46;14.00;99.90
17845;DHT22;9047;53.486;10.218;2023-05-07T10:16:16;14.10;99.90
17845;DHT22;9047;53.486;10.218;2023-05-07T10:18:44;14.30;99.90
17845;DHT22;9047;53.486;10.218;2023-05-07T10:21:16;14.50;99.90
17845;DHT22;9047;53.486;10.218;2023-05-07T10:23:49;14.60;99.90
17845;DHT22;9047;53.486;10.218;2023-05-07T10:26:18;14.70;99.90
17845;DHT22;9047;53.486;10.218;2023-05-07T10:28:49;14.80;99.90
17845;DHT22;9047;53.486;10.218;2023-05-07T10:31:32;14.80;99.90
17845;DHT22;9047;53.486;10.218;2023-05-07T10:34:07;14.80;99.90
17845;DHT22;9047;53.486;10.218;2023-05-07T10:36:37;14.90;99.90
17845;DHT22;9047;53.486;10.218;2023-05-07T10:39:06;14.90;99.90
17845;DHT22;9047;53.486;10.218;2023-05-07T10:41:40;14.90;99.90
17845;DHT22;9047;53.486;10.218;2023-05-07T10:44:11;14.90;99.90
17845;DHT22;9047;53.486;10.218;2023-05-07T10:46:39;15.00;99.90
17845;DHT22;9047;53.486;10.218;2023-05-07T10:49:07;15.10;99.90
17845;DHT22;9047;53.486;10.218;2023-05-07T10:51:34;15.10;99.90
17845;DHT22;9047;53.486;10.218;2023-05-07T10:54:23;15.10;99.90
17845;DHT22;9047;53.486;10.218;2023-05-07T10:56:51;15.10;99.90
17845;DHT22;9047;53.486;10.218;2023-05-07T10:59:31;15.10;99.90
17845;DHT22;9047;53.486;10.218;2023-05-07T11:02:00;15.10;99.90
17845;DHT22;9047;53.486;10.218;2023-05-07T11:04:28;15.10;99.90
17845;DHT22;9047;53.486;10.218;2023-05-07T11:07:28;15.20;99.90
17845;DHT22;9047;53.486;10.218;2023-05-07T11:10:08;15.40;99.90
17845;DHT22;9047;53.486;10.218;2023-05-07T11:13:01;15.50;99.90
17845;DHT22;9047;53.486;10.218;2023-05-07T11:15:42;15.60;99.90
17845;DHT22;9047;53.486;10.218;2023-05-07T11:18:14;15.80;99.90
17845;DHT22;9047;53.486;10.218;2023-05-07T11:20:46;15.90;99.90
17845;DHT22;9047;53.486;10.218;2023-05-07T11:23:55;16.10;99.90
17845;DHT22;9047;53.486;10.218;2023-05-07T11:26:25;16.20;99.90
17845;DHT22;9047;53.486;10.218;2023-05-07T11:28:52;16.20;99.90
17845;DHT22;9047;53.486;10.218;2023-05-07T11:31:21;16.30;99.90
17845;DHT22;9047;53.486;10.218;2023-05-07T11:33:49;16.50;99.90
17845;DHT22;9047;53.486;10.218;2023-05-07T11:36:18;16.60;99.90
17845;DHT22;9047;53.486;10.218;2023-05-07T11:38:46;16.60;99.90
17845;DHT22;9047;53.486;10.218;2023-05-07T11:41:13;16.80;99.90
17845;DHT22;9047;53.486;10.218;2023-05-07T11:43:55;16.90;99.90
17845;DHT22;9047;53.486;10.218;2023-05-07T11:46:24;17.00;99.90
17845;DHT22;9047;53.486;10.218;2023-05-07T11:48:51;17.00;99.90
17845;DHT22;9047;53.486;10.218;2023-05-07T11:51:19;17.10;99.90
17845;DHT22;9047;53.486;10.218;2023-05-07T11:53:46;17.20;99.90
17845;DHT22;9047;53.486;10.218;2023-05-07T11:56:15;17.30;99.90
17845;DHT22;9047;53.486;10.218;2023-05-07T11:58:43;17.40;99.90
17845;DHT22;9047;53.486;10.218;2023-05-07T12:01:13;17.40;99.90
17845;DHT22;9047;53.486;10.218;2023-05-07T12:03:41;17.40;99.90
17845;DHT22;9047;53.486;10.218;2023-05-07T12:06:09;17.50;99.90
17845;DHT22;9047;53.486;10.218;2023-05-07T12:08:38;17.50;99.90
17845;DHT22;9047;53.486;10.218;2023-05-07T12:11:11;17.60;99.90
17845;DHT22;9047;53.486;10.218;2023-05-07T12:13:39;17.70;99.90
17845;DHT22;9047;53.486;10.218;2023-05-07T12:16:06;17.80;99.90
17845;DHT22;9047;53.486;10.218;2023-05-07T12:18:36;17.70;99.90
17845;DHT22;9047;53.486;10.218;2023-05-07T12:21:05;17.80;99.90
17845;DHT22;9047;53.486;10.218;2023-05-07T12:23:32;17.80;99.90
17845;DHT22;9047;53.486;10.218;2023-05-07T12:26:00;17.80;99.90
17845;DHT22;9047;53.486;10.218;2023-05-07T12:28:27;17.80;99.90
17845;DHT22;9047;53.486;10.218;2023-05-07T12:30:56;17.80;99.90
17845;DHT22;9047;53.486;10.218;2023-05-07T12:33:25;17.90;99.90
17845;DHT22;9047;53.486;10.218;2023-05-07T12:35:55;17.90;99.90
17845;DHT22;9047;53.486;10.218;2023-05-07T12:38:23;17.90;99.90
17845;DHT22;9047;53.486;10.218;2023-05-07T12:40:53;17.80;99.90
17845;DHT22;9047;53.486;10.218;2023-05-07T12:43:21;17.70;99.90
17845;DHT22;9047;53.486;10.218;2023-05-07T12:45:50;17.50;99.90
17845;DHT22;9047;53.486;10.218;2023-05-07T12:48:18;17.50;99.90
17845;DHT22;9047;53.486;10.218;2023-05-07T12:50:48;17.40;99.90
17845;DHT22;9047;53.486;10.218;2023-05-07T12:53:21;17.30;99.90
17845;DHT22;9047;53.486;10.218;2023-05-07T12:55:49;17.30;99.90
17845;DHT22;9047;53.486;10.218;2023-05-07T12:58:19;17.20;99.90
17845;DHT22;9047;53.486;10.218;2023-05-07T13:00:49;17.10;99.90
17845;DHT22;9047;53.486;10.218;2023-05-07T13:03:25;17.00;99.90
17845;DHT22;9047;53.486;10.218;2023-05-07T13:05:54;17.10;99.90
17845;DHT22;9047;53.486;10.218;2023-05-07T13:08:27;17.00;99.90
17845;DHT22;9047;53.486;10.218;2023-05-07T13:10:54;17.00;99.90
17845;DHT22;9047;53.486;10.218;2023-05-07T13:13:22;17.00;99.90
17845;DHT22;9047;53.486;10.218;2023-05-07T13:15:49;17.00;99.90
17845;DHT22;9047;53.486;10.218;2023-05-07T13:18:17;17.00;99.90
17845;DHT22;9047;53.486;10.218;2023-05-07T13:20:45;16.90;99.90
17845;DHT22;9047;53.486;10.218;2023-05-07T13:23:13;17.00;99.90
17845;DHT22;9047;53.486;10.218;2023-05-07T13:25:50;17.00;99.90
17845;DHT22;9047;53.486;10.218;2023-05-07T13:28:19;17.00;99.90
17845;DHT22;9047;53.486;10.218;2023-05-07T13:30:47;17.00;99.90
17845;DHT22;9047;53.486;10.218;2023-05-07T13:33:15;17.00;99.90
17845;DHT22;9047;53.486;10.218;2023-05-07T13:35:43;17.10;99.90
17845;DHT22;9047;53.486;10.218;2023-05-07T13:38:11;17.10;99.90
17845;DHT22;9047;53.486;10.218;2023-05-07T13:40:40;17.20;99.90
17845;DHT22;9047;53.486;10.218;2023-05-07T13:43:10;17.30;99.90
17845;DHT22;9047;53.486;10.218;2023-05-07T13:45:37;17.40;99.90
17845;DHT22;9047;53.486;10.218;2023-05-07T13:48:04;17.40;99.90
17845;DHT22;9047;53.486;10.218;2023-05-07T13:50:31;17.50;99.90
17845;DHT22;9047;53.486;10.218;2023-05-07T13:52:59;17.50;99.90
17845;DHT22;9047;53.486;10.218;2023-05-07T13:55:29;17.50;99.90
17845;DHT22;9047;53.486;10.218;2023-05-07T13:57:56;17.40;99.90
17845;DHT22;9047;53.486;10.218;2023-05-07T14:00:26;17.40;99.90
17845;DHT22;9047;53.486;10.218;2023-05-07T14:02:53;17.40;99.90
17845;DHT22;9047;53.486;10.218;2023-05-07T14:05:23;17.40;99.90
17845;DHT22;9047;53.486;10.218;2023-05-07T14:07:51;17.60;99.90
17845;DHT22;9047;53.486;10.218;2023-05-07T14:10:30;17.60;99.90
17845;DHT22;9047;53.486;10.218;2023-05-07T14:13:00;17.80;99.90
17845;DHT22;9047;53.486;10.218;2023-05-07T14:15:29;17.90;99.90
17845;DHT22;9047;53.486;10.218;2023-05-07T14:17:57;18.00;99.90
17845;DHT22;9047;53.486;10.218;2023-05-07T14:20:26;18.10;99.90
17845;DHT22;9047;53.486;10.218;2023-05-07T14:22:53;18.20;99.90
17845;DHT22;9047;53.486;10.218;2023-05-07T14:25:23;18.20;99.90
17845;DHT22;9047;53.486;10.218;2023-05-07T14:27:50;18.30;99.90
17845;DHT22;9047;53.486;10.218;2023-05-07T14:30:17;18.30;99.90
17845;DHT22;9047;53.486;10.218;2023-05-07T14:32:46;18.30;99.90
17845;DHT22;9047;53.486;10.218;2023-05-07T14:35:14;18.30;99.90
17845;DHT22;9047;53.486;10.218;2023-05-07T14:37:43;18.40;99.90
17845;DHT22;9047;53.486;10.218;2023-05-07T14:40:13;18.40;99.90
17845;DHT22;9047;53.486;10.218;2023-05-07T14:42:40;18.40;99.90
17845;DHT22;9047;53.486;10.218;2023-05-07T14:45:10;18.40;99.90
17845;DHT22;9047;53.486;10.218;2023-05-07T14:47:39;18.30;99.90
17845;DHT22;9047;53.486;10.218;2023-05-07T14:50:09;18.20;99.90
17845;DHT22;9047;53.486;10.218;2023-05-07T14:52:38;18.10;99.90
17845;DHT22;9047;53.486;10.218;2023-05-07T14:55:07;18.00;99.90
17845;DHT22;9047;53.486;10.218;2023-05-07T14:57:36;17.90;99.90
17845;DHT22;9047;53.486;10.218;2023-05-07T15:00:04;17.90;99.90
17845;DHT22;9047;53.486;10.218;2023-05-07T15:02:33;18.00;99.90
17845;DHT22;9047;53.486;10.218;2023-05-07T15:05:01;18.00;99.90
17845;DHT22;9047;53.486;10.218;2023-05-07T15:07:29;17.90;99.90
17845;DHT22;9047;53.486;10.218;2023-05-07T15:09:58;17.90;99.90
17845;DHT22;9047;53.486;10.218;2023-05-07T15:12:25;17.80;99.90
17845;DHT22;9047;53.486;10.218;2023-05-07T15:14:52;17.80;99.90
17845;DHT22;9047;53.486;10.218;2023-05-07T15:17:21;17.80;99.90
17845;DHT22;9047;53.486;10.218;2023-05-07T15:19:50;17.70;99.90
17845;DHT22;9047;53.486;10.218;2023-05-07T15:22:17;17.80;99.90
17845;DHT22;9047;53.486;10.218;2023-05-07T15:24:48;17.90;99.90
17845;DHT22;9047;53.486;10.218;2023-05-07T15:27:15;17.90;99.90
17845;DHT22;9047;53.486;10.218;2023-05-07T15:29:44;18.00;99.90
17845;DHT22;9047;53.486;10.218;2023-05-07T15:32:11;17.90;99.90
17845;DHT22;9047;53.486;10.218;2023-05-07T15:34:38;17.90;99.90
17845;DHT22;9047;53.486;10.218;2023-05-07T15:37:06;17.80;99.90
17845;DHT22;9047;53.486;10.218;2023-05-07T15:39:34;17.80;99.90
17845;DHT22;9047;53.486;10.218;2023-05-07T15:42:02;17.60;99.90
17845;DHT22;9047;53.486;10.218;2023-05-07T15:44:31;17.60;99.90
17845;DHT22;9047;53.486;10.218;2023-05-07T15:46:59;17.60;99.90